createdAt,value
2024-01-14T00:01:19.970Z,0.22
2024-01-14T00:03:50.284Z,0.20
2024-01-14T00:06:21.491Z,0.21
2024-01-14T00:08:54.430Z,0.17
2024-01-14T00:11:24.662Z,0.20
2024-01-14T00:13:55.392Z,0.22
2024-01-14T00:16:25.937Z,0.22
2024-01-14T00:18:56.237Z,0.24
2024-01-14T00:21:26.565Z,0.25
2024-01-14T00:23:59.866Z,0.26
2024-01-14T00:26:30.725Z,0.30
2024-01-14T00:29:02.920Z,0.30
2024-01-14T00:31:33.320Z,0.36
2024-01-14T00:34:03.735Z,0.37
2024-01-14T00:36:33.982Z,0.39
2024-01-14T00:39:07.970Z,0.44
2024-01-14T00:41:38.381Z,0.45
2024-01-14T00:44:08.495Z,0.50
2024-01-14T00:46:38.847Z,0.56
2024-01-14T00:49:39.935Z,0.58
2024-01-14T00:52:11.964Z,0.66
2024-01-14T00:54:46.793Z,0.58
2024-01-14T00:57:16.921Z,0.61
2024-01-14T00:59:47.176Z,0.60
2024-01-14T01:02:17.624Z,0.61
2024-01-14T01:04:50.650Z,0.62
2024-01-14T01:07:22.913Z,0.59
2024-01-14T01:09:56.640Z,0.54
2024-01-14T01:12:27.037Z,0.48
2024-01-14T01:14:57.416Z,0.44
2024-01-14T01:17:28.631Z,0.42
2024-01-14T01:19:58.957Z,0.42
2024-01-14T01:22:29.196Z,0.47
2024-01-14T01:25:04.517Z,0.52
2024-01-14T01:27:34.921Z,0.55
2024-01-14T01:30:05.183Z,0.59
2024-01-14T01:32:35.483Z,0.64
2024-01-14T01:35:05.856Z,0.70
2024-01-14T01:37:36.432Z,0.72
2024-01-14T01:40:11.047Z,0.73
2024-01-14T01:42:41.443Z,0.71
2024-01-14T01:45:12.660Z,0.67
2024-01-14T01:47:43.862Z,0.63
2024-01-14T01:50:14.738Z,0.61
2024-01-14T01:52:45.438Z,0.63
2024-01-14T01:57:53.927Z,0.56
2024-01-14T02:00:26.177Z,0.50
2024-01-14T02:02:56.834Z,0.40
2024-01-14T02:05:29.070Z,0.42
2024-01-14T02:07:59.941Z,0.41
2024-01-14T02:10:32.874Z,0.48
2024-01-14T02:13:04.394Z,0.47
2024-01-14T02:15:34.924Z,0.42
2024-01-14T02:18:05.654Z,0.42
2024-01-14T02:20:35.887Z,0.41
2024-01-14T02:23:09.038Z,0.36
2024-01-14T02:25:42.017Z,0.36
2024-01-14T02:28:12.430Z,0.33
2024-01-14T02:30:45.179Z,0.31
2024-01-14T02:33:15.623Z,0.30
2024-01-14T02:35:45.843Z,0.27
2024-01-14T02:38:16.013Z,0.26
2024-01-14T02:40:48.822Z,0.25
2024-01-14T02:43:19.143Z,0.24
2024-01-14T02:45:49.304Z,0.23
2024-01-14T02:48:19.621Z,0.21
2024-01-14T02:50:50.001Z,0.23
2024-01-14T02:53:20.197Z,0.23
2024-01-14T02:55:53.045Z,0.17
2024-01-14T02:58:23.403Z,0.14
2024-01-14T03:00:54.021Z,0.10
2024-01-14T03:03:24.382Z,0.09
2024-01-14T03:05:54.985Z,0.08
2024-01-14T03:08:25.462Z,0.10
2024-01-14T03:10:58.201Z,0.09
2024-01-14T03:13:28.334Z,0.12
2024-01-14T03:15:58.446Z,0.14
2024-01-14T03:18:28.706Z,0.18
2024-01-14T03:20:59.087Z,0.20
2024-01-14T03:23:29.307Z,0.18
2024-01-14T03:26:02.104Z,0.19
2024-01-14T03:28:32.420Z,0.22
2024-01-14T03:31:02.697Z,0.22
2024-01-14T03:33:33.123Z,0.27
2024-01-14T03:36:04.968Z,0.28
2024-01-14T03:38:35.256Z,0.28
2024-01-14T03:41:08.519Z,0.26
2024-01-14T03:43:39.059Z,0.26
2024-01-14T03:46:09.242Z,0.28
2024-01-14T03:48:40.417Z,0.30
2024-01-14T03:51:10.767Z,0.28
2024-01-14T03:53:41.063Z,0.30
2024-01-14T03:56:13.850Z,0.30
2024-01-14T03:58:44.017Z,0.30
2024-01-14T04:01:20.416Z,0.31
2024-01-14T04:03:50.692Z,0.32
2024-01-14T04:06:24.936Z,0.34
2024-01-14T04:08:55.437Z,0.33
2024-01-14T04:11:28.185Z,0.36
2024-01-14T04:13:58.318Z,0.35
2024-01-14T04:16:28.506Z,0.33
2024-01-14T04:18:59.188Z,0.31
2024-01-14T04:21:29.518Z,0.29
2024-01-14T04:24:01.249Z,0.29
2024-01-14T04:26:34.776Z,0.28
2024-01-14T04:29:05.194Z,0.28
2024-01-14T04:31:35.383Z,0.26
2024-01-14T04:34:06.203Z,0.24
2024-01-14T04:36:36.383Z,0.23
2024-01-14T04:39:07.094Z,0.22
2024-01-14T04:41:41.858Z,0.24
2024-01-14T04:44:12.063Z,0.23
2024-01-14T04:46:42.246Z,0.24
2024-01-14T04:49:12.645Z,0.23
2024-01-14T04:51:42.883Z,0.22
2024-01-14T04:54:13.335Z,0.21
2024-01-14T04:56:46.348Z,0.19
2024-01-14T04:59:17.208Z,0.21
2024-01-14T05:01:47.344Z,0.22
2024-01-14T05:04:17.609Z,0.25
2024-01-14T05:06:47.739Z,0.24
2024-01-14T05:09:18.835Z,0.24
2024-01-14T05:11:52.008Z,0.22
2024-01-14T05:14:22.271Z,0.20
2024-01-14T05:16:52.792Z,0.21
2024-01-14T05:19:23.458Z,0.17
2024-01-14T05:21:55.972Z,0.14
2024-01-14T05:24:26.420Z,0.12
2024-01-14T05:26:59.207Z,0.09
2024-01-14T05:29:29.353Z,0.07
2024-01-14T05:31:59.595Z,0.02
2024-01-14T05:34:29.826Z,0.02
2024-01-14T05:37:01.011Z,0.02
2024-01-14T05:39:31.957Z,0.02
2024-01-14T05:42:05.209Z,-0.01
2024-01-14T05:44:35.925Z,-0.02
2024-01-14T05:47:06.131Z,-0.01
2024-01-14T05:49:36.337Z,0.01
2024-01-14T05:52:06.874Z,0.02
2024-01-14T05:54:37.485Z,0.03
2024-01-14T05:57:11.884Z,0.04
2024-01-14T05:59:44.232Z,0.06
2024-01-14T06:02:14.540Z,0.07
2024-01-14T06:04:44.991Z,0.09
2024-01-14T06:07:15.498Z,0.10
2024-01-14T06:09:46.173Z,0.11
2024-01-14T06:12:19.296Z,0.16
2024-01-14T06:14:49.812Z,0.18
2024-01-14T06:17:20.056Z,0.20
2024-01-14T06:19:50.426Z,0.22
2024-01-14T06:22:20.713Z,0.21
2024-01-14T06:24:50.951Z,0.21
2024-01-14T06:27:23.972Z,0.18
2024-01-14T06:29:54.652Z,0.22
2024-01-14T06:32:27.040Z,0.25
2024-01-14T06:34:57.857Z,0.25
2024-01-14T06:37:28.802Z,0.28
2024-01-14T06:39:58.952Z,0.28
2024-01-14T06:42:34.444Z,0.25
2024-01-14T06:45:04.929Z,0.23
2024-01-14T06:47:36.101Z,0.23
2024-01-14T06:50:11.286Z,0.27
2024-01-14T06:52:44.960Z,0.27
2024-01-14T06:55:16.825Z,0.28
2024-01-14T06:57:49.640Z,0.26
2024-01-14T07:00:21.112Z,0.28
2024-01-14T07:02:54.205Z,0.31
2024-01-14T07:05:24.537Z,0.30
2024-01-14T07:07:54.671Z,0.29
2024-01-14T07:10:24.859Z,0.33
2024-01-14T07:12:57.894Z,0.33
2024-01-14T07:15:28.332Z,0.35
2024-01-14T07:18:00.491Z,0.35
2024-01-14T07:20:31.351Z,0.37
2024-01-14T07:23:40.360Z,0.35
2024-01-14T07:25:51.806Z,0.36
2024-01-14T07:28:26.103Z,0.41
2024-01-14T07:30:56.474Z,0.41
2024-01-14T07:33:26.813Z,0.43
2024-01-14T07:35:56.987Z,0.48
2024-01-14T07:38:27.093Z,0.45
2024-01-14T07:40:57.554Z,0.43
2024-01-14T07:43:30.274Z,0.43
2024-01-14T07:46:01.127Z,0.40
2024-01-14T07:48:31.325Z,0.43
2024-01-14T07:51:01.878Z,0.46
2024-01-14T07:53:32.064Z,0.49
2024-01-14T07:56:02.303Z,0.53
2024-01-14T07:58:35.051Z,0.52
2024-01-14T08:01:05.414Z,0.53
2024-01-14T08:03:37.498Z,0.52
2024-01-14T08:06:08.493Z,0.48
2024-01-14T08:08:38.717Z,0.47
2024-01-14T08:11:09.073Z,0.46
2024-01-14T08:13:41.874Z,0.51
2024-01-14T08:16:12.427Z,0.60
2024-01-14T08:18:42.827Z,0.59
2024-01-14T08:21:13.320Z,0.66
2024-01-14T08:23:43.501Z,0.77
2024-01-14T08:26:14.537Z,0.81
2024-01-14T08:28:47.324Z,0.89
2024-01-14T08:31:17.520Z,0.79
2024-01-14T08:33:47.847Z,0.81
2024-01-14T08:36:18.112Z,0.85
2024-01-14T08:38:48.252Z,0.85
2024-01-14T08:41:18.394Z,0.85
2024-01-14T08:43:51.147Z,0.92
2024-01-14T08:46:21.286Z,0.95
2024-01-14T08:48:51.521Z,1.01
2024-01-14T08:51:22.147Z,1.03
2024-01-14T08:53:52.667Z,0.96
2024-01-14T08:56:22.871Z,0.98
2024-01-14T08:58:55.729Z,0.99
2024-01-14T09:01:26.149Z,0.97
2024-01-14T09:03:56.599Z,0.98
2024-01-14T09:06:29.377Z,1.04
2024-01-14T09:08:59.629Z,0.97
2024-01-14T09:11:29.721Z,0.97
2024-01-14T09:14:02.461Z,1.00
2024-01-14T09:16:32.731Z,1.04
2024-01-14T09:19:02.999Z,0.99
2024-01-14T09:21:33.405Z,0.94
2024-01-14T09:24:03.939Z,0.92
2024-01-14T09:26:34.120Z,1.03
2024-01-14T09:29:06.891Z,1.24
2024-01-14T09:31:37.167Z,1.46
2024-01-14T09:34:07.720Z,1.62
2024-01-14T09:36:40.260Z,1.71
2024-01-14T09:39:11.973Z,1.61
2024-01-14T09:41:48.744Z,1.51
2024-01-14T09:44:22.304Z,1.45
2024-01-14T09:46:56.446Z,1.48
2024-01-14T09:49:26.798Z,1.62
2024-01-14T09:52:01.240Z,1.74
2024-01-14T09:54:31.586Z,1.76
2024-01-14T09:57:07.849Z,1.69
2024-01-14T09:59:42.307Z,1.58
2024-01-14T10:02:14.511Z,1.62
2024-01-14T10:04:45.436Z,1.51
2024-01-14T10:07:16.615Z,1.47
2024-01-14T10:09:47.401Z,1.53
2024-01-14T10:12:18.577Z,1.70
2024-01-14T10:15:00.921Z,1.78
2024-01-14T10:17:31.982Z,1.88
2024-01-14T10:20:02.251Z,2.02
2024-01-14T10:22:32.964Z,2.07
2024-01-14T10:25:03.101Z,2.06
2024-01-14T10:27:37.232Z,2.06
2024-01-14T10:30:16.296Z,2.10
2024-01-14T10:33:17.884Z,2.29
2024-01-14T10:35:37.698Z,2.02
2024-01-14T10:38:07.955Z,2.08
2024-01-14T10:40:38.102Z,2.05
2024-01-14T10:43:10.057Z,2.10
2024-01-14T10:45:42.927Z,2.20
2024-01-14T10:48:17.123Z,2.00
2024-01-14T10:50:49.188Z,1.76
2024-01-14T10:53:25.962Z,1.77
2024-01-14T10:56:05.766Z,1.72
2024-01-14T10:58:38.112Z,1.90
2024-01-14T11:01:12.066Z,2.35
2024-01-14T11:03:44.405Z,2.85
2024-01-14T11:06:20.001Z,3.04
2024-01-14T11:08:55.447Z,2.77
2024-01-14T11:11:32.812Z,2.69
2024-01-14T11:14:10.100Z,2.49
2024-01-14T11:16:49.857Z,2.21
2024-01-14T11:19:33.716Z,2.12
2024-01-14T11:22:34.681Z,1.94
2024-01-14T11:25:14.368Z,1.95
2024-01-14T11:27:44.513Z,1.83
2024-01-14T11:30:21.095Z,1.78
2024-01-14T11:33:14.608Z,1.72
2024-01-14T11:35:45.474Z,1.57
2024-01-14T11:38:35.313Z,1.40
2024-01-14T11:41:26.813Z,1.24
2024-01-14T11:43:57.636Z,1.32
2024-01-14T11:46:47.730Z,1.51
2024-01-14T11:49:26.728Z,1.40
2024-01-14T11:51:59.796Z,1.25
2024-01-14T11:54:31.234Z,1.19
2024-01-14T11:57:02.760Z,1.06
2024-01-14T11:59:41.532Z,1.08
2024-01-14T12:02:19.576Z,1.21
2024-01-14T12:04:58.035Z,1.74
2024-01-14T12:07:34.848Z,1.95
2024-01-14T12:10:05.305Z,1.90
2024-01-14T12:12:35.721Z,1.87
2024-01-14T12:15:07.271Z,1.98
2024-01-14T12:17:37.535Z,1.89
2024-01-14T12:20:11.617Z,1.84
2024-01-14T12:22:41.874Z,1.83
2024-01-14T12:25:12.850Z,1.81
2024-01-14T12:27:43.760Z,1.73
2024-01-14T12:30:15.567Z,1.68
2024-01-14T12:32:46.221Z,1.69
2024-01-14T12:35:19.663Z,1.62
2024-01-14T12:37:51.019Z,1.71
2024-01-14T12:40:21.478Z,1.69
2024-01-14T12:42:51.862Z,1.76
2024-01-14T12:45:22.539Z,1.80
2024-01-14T12:48:02.841Z,1.83
2024-01-14T12:50:38.882Z,1.78
2024-01-14T12:53:11.157Z,1.63
2024-01-14T12:55:42.386Z,1.54
2024-01-14T12:58:12.820Z,1.61
2024-01-14T13:00:43.077Z,1.76
2024-01-14T13:03:13.926Z,1.68
2024-01-14T13:05:46.750Z,1.70
2024-01-14T13:08:16.971Z,1.79
2024-01-14T13:10:47.212Z,1.74
2024-01-14T13:13:17.360Z,1.69
2024-01-14T13:15:47.583Z,1.56
2024-01-14T13:18:17.845Z,1.53
2024-01-14T13:20:50.892Z,1.37
2024-01-14T13:23:21.063Z,1.32
2024-01-14T13:25:52.815Z,1.28
2024-01-14T13:28:25.080Z,1.37
2024-01-14T13:30:55.801Z,1.47
2024-01-14T13:33:26.040Z,1.49
2024-01-14T13:35:58.950Z,1.50
2024-01-14T13:38:29.202Z,1.47
2024-01-14T13:40:59.311Z,1.44
2024-01-14T13:43:29.574Z,1.35
2024-01-14T13:46:08.676Z,1.41
2024-01-14T13:48:39.080Z,1.41
2024-01-14T13:51:13.377Z,1.45
2024-01-14T13:53:51.897Z,1.49
2024-01-14T13:56:29.021Z,1.40
2024-01-14T13:58:59.149Z,1.37
2024-01-14T14:01:30.633Z,1.28
2024-01-14T14:04:03.396Z,1.27
2024-01-14T14:06:38.703Z,1.25
2024-01-14T14:09:10.673Z,1.21
2024-01-14T14:11:41.466Z,1.19
2024-01-14T14:14:11.825Z,1.17
2024-01-14T14:16:43.578Z,1.15
2024-01-14T14:19:24.540Z,1.11
2024-01-14T14:22:00.632Z,1.12
2024-01-14T14:24:33.469Z,1.10
2024-01-14T14:27:04.176Z,1.06
2024-01-14T14:29:34.475Z,0.98
2024-01-14T14:32:04.833Z,0.91
2024-01-14T14:34:37.209Z,0.87
2024-01-14T14:37:11.748Z,0.89
2024-01-14T14:39:44.032Z,0.80
2024-01-14T14:42:14.263Z,0.76
2024-01-14T14:44:44.657Z,0.72
2024-01-14T14:47:16.343Z,0.69
2024-01-14T14:49:48.476Z,0.71
2024-01-14T14:52:21.462Z,0.66
2024-01-14T14:54:51.700Z,0.64
2024-01-14T14:57:21.942Z,0.63
2024-01-14T14:59:52.185Z,0.59
2024-01-14T15:02:22.377Z,0.59
2024-01-14T15:04:52.626Z,0.59
2024-01-14T15:07:26.563Z,0.60
2024-01-14T15:09:57.809Z,0.61
2024-01-14T15:12:29.824Z,0.59
2024-01-14T15:15:00.003Z,0.55
2024-01-14T15:17:30.186Z,0.58
2024-01-14T15:20:05.016Z,0.57
2024-01-14T15:22:38.774Z,0.56
2024-01-14T15:25:09.528Z,0.58
2024-01-14T15:27:39.788Z,0.57
2024-01-14T15:30:12.081Z,0.58
2024-01-14T15:32:43.459Z,0.56
2024-01-14T15:35:13.943Z,0.58
2024-01-14T15:37:47.021Z,0.53
2024-01-14T15:40:17.382Z,0.54
2024-01-14T15:42:47.539Z,0.52
2024-01-14T15:45:17.765Z,0.54
2024-01-14T15:47:48.422Z,0.56
2024-01-14T15:50:19.021Z,0.54
2024-01-14T15:52:51.976Z,0.58
2024-01-14T15:55:22.593Z,0.56
2024-01-14T15:57:52.716Z,0.54
2024-01-14T16:00:23.194Z,0.56
2024-01-14T16:02:53.400Z,0.56
2024-01-14T16:05:23.733Z,0.56
2024-01-14T16:07:56.552Z,0.56
2024-01-14T16:10:26.842Z,0.56
2024-01-14T16:12:57.971Z,0.58
2024-01-14T16:15:28.133Z,0.55
2024-01-14T16:17:58.712Z,0.57
2024-01-14T16:20:28.855Z,0.59
2024-01-14T16:23:01.662Z,0.60
2024-01-14T16:25:31.828Z,0.59
2024-01-14T16:28:01.927Z,0.60
2024-01-14T16:30:32.369Z,0.60
2024-01-14T16:33:02.565Z,0.62
2024-01-14T16:35:40.491Z,0.62
2024-01-14T16:38:20.424Z,0.62
2024-01-14T16:41:02.955Z,0.66
2024-01-14T16:43:35.633Z,0.67
2024-01-14T16:46:06.804Z,0.65
2024-01-14T16:48:37.552Z,0.64
2024-01-14T16:51:11.541Z,0.66
2024-01-14T16:53:46.617Z,0.67
2024-01-14T16:56:17.749Z,0.66
2024-01-14T16:58:48.069Z,0.66
2024-01-14T17:01:19.853Z,0.68
2024-01-14T17:03:52.012Z,0.63
2024-01-14T17:06:22.948Z,0.63
2024-01-14T17:08:55.749Z,0.69
2024-01-14T17:11:26.467Z,0.66
2024-01-14T17:13:56.960Z,0.68
2024-01-14T17:16:28.348Z,0.67
2024-01-14T17:19:00.179Z,0.67
2024-01-14T17:21:30.867Z,0.66
2024-01-14T17:24:03.627Z,0.66
2024-01-14T17:26:33.747Z,0.64
2024-01-14T17:29:05.544Z,0.63
2024-01-14T17:31:35.821Z,0.66
2024-01-14T17:34:06.270Z,0.63
2024-01-14T17:36:36.730Z,0.61
2024-01-14T17:39:09.634Z,0.59
2024-01-14T17:41:39.881Z,0.58
2024-01-14T17:44:10.372Z,0.53
2024-01-14T17:46:42.145Z,0.53
2024-01-14T17:49:12.411Z,0.51
2024-01-14T17:51:42.570Z,0.51
2024-01-14T17:54:15.742Z,0.46
2024-01-14T17:56:45.874Z,0.47
2024-01-14T17:59:16.333Z,0.46
2024-01-14T18:01:46.872Z,0.39
2024-01-14T18:04:17.713Z,0.27
2024-01-14T18:06:48.021Z,0.18
2024-01-14T18:09:20.873Z,0.15
2024-01-14T18:11:51.065Z,0.14
2024-01-14T18:14:21.225Z,0.17
2024-01-14T18:16:51.414Z,0.19
2024-01-14T18:19:21.657Z,0.19
2024-01-14T18:21:59.822Z,0.16
2024-01-14T18:24:32.605Z,0.17
2024-01-14T18:27:04.155Z,0.24
2024-01-14T18:29:34.347Z,0.31
2024-01-14T18:32:04.637Z,0.32
2024-01-14T18:34:36.108Z,0.34
2024-01-14T18:37:07.211Z,0.36
2024-01-14T18:39:40.769Z,0.37
2024-01-14T18:42:13.614Z,0.38
2024-01-14T18:44:45.184Z,0.44
2024-01-14T18:47:15.852Z,0.46
2024-01-14T18:49:46.030Z,0.51
2024-01-14T18:52:16.765Z,0.55
2024-01-14T18:54:49.696Z,0.58
2024-01-14T18:57:19.851Z,0.60
2024-01-14T18:59:50.567Z,0.63
2024-01-14T19:02:20.900Z,0.61
2024-01-14T19:04:51.460Z,0.64
2024-01-14T19:07:22.055Z,0.67
2024-01-14T19:09:54.842Z,0.67
2024-01-14T19:12:25.005Z,0.70
2024-01-14T19:14:55.266Z,0.72
2024-01-14T19:17:28.460Z,0.73
2024-01-14T19:20:01.076Z,0.76
2024-01-14T19:22:31.545Z,0.73
2024-01-14T19:25:06.765Z,0.75
2024-01-14T19:27:38.635Z,0.72
2024-01-14T19:30:10.704Z,0.69
2024-01-14T19:32:41.053Z,0.66
2024-01-14T19:35:12.411Z,0.62
2024-01-14T19:37:42.574Z,0.60
2024-01-14T19:40:17.620Z,0.63
2024-01-14T19:42:47.835Z,0.67
2024-01-14T19:45:18.502Z,0.67
2024-01-14T19:47:49.270Z,0.68
2024-01-14T19:50:19.834Z,0.66
2024-01-14T19:52:50.067Z,0.67
2024-01-14T19:55:23.057Z,0.68
2024-01-14T19:57:53.371Z,0.68
2024-01-14T20:00:25.638Z,0.67
2024-01-14T20:02:55.869Z,0.63
2024-01-14T20:05:26.098Z,0.62
2024-01-14T20:07:56.225Z,0.61
2024-01-14T20:10:28.975Z,0.58
2024-01-14T20:12:59.165Z,0.60
2024-01-14T20:15:29.360Z,0.56
2024-01-14T20:17:59.629Z,0.57
2024-01-14T20:20:29.799Z,0.47
2024-01-14T20:22:59.841Z,0.36
2024-01-14T20:25:32.873Z,0.28
2024-01-14T20:28:03.038Z,0.21
2024-01-14T20:30:33.294Z,0.18
2024-01-14T20:33:03.746Z,0.12
2024-01-14T20:35:34.030Z,0.15
2024-01-14T20:38:04.169Z,0.13
2024-01-14T20:40:37.138Z,0.10
2024-01-14T20:43:07.967Z,0.13
2024-01-14T20:45:38.257Z,0.14
2024-01-14T20:48:10.186Z,0.15
2024-01-14T20:50:40.413Z,0.18
2024-01-14T20:53:11.330Z,0.17
2024-01-14T20:55:44.686Z,0.15
2024-01-14T20:58:14.857Z,0.18
2024-01-14T21:00:45.046Z,0.16
2024-01-14T21:03:15.717Z,0.17
2024-01-14T21:05:46.766Z,0.15
2024-01-14T21:08:16.975Z,0.10
2024-01-14T21:10:49.838Z,0.09
2024-01-14T21:13:19.970Z,0.06
2024-01-14T21:15:50.399Z,0.04
2024-01-14T21:18:21.403Z,-0.02
2024-01-14T21:20:51.712Z,-0.03
2024-01-14T21:23:23.360Z,-0.01
2024-01-14T21:25:56.091Z,-0.05
2024-01-14T21:28:26.251Z,-0.08
2024-01-14T21:30:56.550Z,-0.08
2024-01-14T21:33:27.168Z,-0.10
2024-01-14T21:35:59.006Z,-0.10
2024-01-14T21:38:29.198Z,-0.11
2024-01-14T21:41:02.473Z,-0.10
2024-01-14T21:43:38.072Z,-0.11
2024-01-14T21:46:08.742Z,-0.09
2024-01-14T21:48:39.060Z,-0.10
2024-01-14T21:51:09.405Z,-0.06
2024-01-14T21:53:39.546Z,-0.05
2024-01-14T21:56:12.383Z,-0.05
2024-01-14T21:58:42.509Z,-0.04
2024-01-14T22:01:12.782Z,-0.03
2024-01-14T22:03:42.967Z,-0.04
2024-01-14T22:06:14.204Z,-0.04
2024-01-14T22:08:45.761Z,-0.03
2024-01-14T22:11:18.502Z,0.00
2024-01-14T22:13:48.707Z,0.04
2024-01-14T22:16:20.840Z,0.04
2024-01-14T22:18:51.431Z,0.04
2024-01-14T22:21:21.610Z,0.08
2024-01-14T22:23:51.868Z,0.06
2024-01-14T22:26:25.813Z,0.10
2024-01-14T22:28:55.995Z,0.08
2024-01-14T22:31:26.260Z,0.07
2024-01-14T22:33:57.279Z,0.09
2024-01-14T22:36:28.560Z,0.10
2024-01-14T22:38:58.723Z,0.08
2024-01-14T22:41:31.473Z,0.05
2024-01-14T22:44:02.309Z,0.05
2024-01-14T22:46:32.540Z,0.08
2024-01-14T22:49:03.040Z,0.06
2024-01-14T22:51:36.362Z,0.07
2024-01-14T22:54:07.506Z,0.04
2024-01-14T22:56:40.246Z,0.03
2024-01-14T22:59:10.524Z,0.04
2024-01-14T23:01:40.679Z,-0.03
2024-01-14T23:04:11.102Z,-0.06
2024-01-14T23:06:41.921Z,-0.07
2024-01-14T23:09:12.370Z,-0.12
2024-01-14T23:11:45.147Z,-0.16
2024-01-14T23:14:15.340Z,-0.22
2024-01-14T23:16:45.743Z,-0.29
2024-01-14T23:19:16.046Z,-0.30
2024-01-14T23:21:47.114Z,-0.38
2024-01-14T23:24:17.560Z,-0.45
2024-01-14T23:26:50.365Z,-0.54
2024-01-14T23:29:20.509Z,-0.59
2024-01-14T23:31:50.712Z,-0.61
2024-01-14T23:34:21.148Z,-0.63
2024-01-14T23:36:51.388Z,-0.66
2024-01-14T23:39:22.740Z,-0.66
2024-01-14T23:41:55.992Z,-0.67
2024-01-14T23:44:26.213Z,-0.62
2024-01-14T23:46:56.387Z,-0.62
2024-01-14T23:49:26.593Z,-0.62
2024-01-14T23:51:57.190Z,-0.65
2024-01-14T23:54:27.475Z,-0.61
2024-01-14T23:57:00.624Z,-0.62
2024-01-14T23:59:30.732Z,-0.62
